createdAt,value
2018-03-26T00:01:19.864Z,12.80
2018-03-26T00:06:22.448Z,12.50
2018-03-26T00:11:25.101Z,13.13
2018-03-26T00:16:27.702Z,13.50
2018-03-26T00:21:30.316Z,13.77
2018-03-26T00:26:32.910Z,14.00
2018-03-26T00:31:35.502Z,13.90
2018-03-26T00:36:38.853Z,15.60
2018-03-26T00:41:41.443Z,14.80
2018-03-26T00:46:44.049Z,13.97
2018-03-26T00:51:46.634Z,15.47
2018-03-26T00:56:49.244Z,14.60
2018-03-26T01:01:51.832Z,14.77
2018-03-26T01:06:54.440Z,16.13
2018-03-26T01:11:57.044Z,14.93
2018-03-26T01:16:59.641Z,15.10
2018-03-26T01:22:02.228Z,15.90
2018-03-26T01:27:04.836Z,16.00
2018-03-26T01:32:07.429Z,16.60
2018-03-26T01:37:10.009Z,15.17
2018-03-26T01:42:13.365Z,16.80
2018-03-26T01:47:15.968Z,16.13
2018-03-26T01:52:18.571Z,16.67
2018-03-26T01:57:21.193Z,16.90
2018-03-26T02:02:23.774Z,17.63
2018-03-26T02:07:26.369Z,17.97
2018-03-26T02:12:28.973Z,17.70
2018-03-26T02:17:31.570Z,17.50
2018-03-26T02:22:34.165Z,17.87
2018-03-26T02:27:36.776Z,18.70
2018-03-26T02:32:39.378Z,19.60
2018-03-26T02:37:41.998Z,20.30
2018-03-26T02:42:44.588Z,19.63
2018-03-26T02:47:47.174Z,17.53
2018-03-26T02:52:49.769Z,17.37
2018-03-26T02:57:52.373Z,17.40
2018-03-26T03:02:54.976Z,17.33
2018-03-26T03:07:57.593Z,17.83
2018-03-26T03:13:00.186Z,17.63
2018-03-26T03:18:02.788Z,17.13
2018-03-26T03:23:06.187Z,17.30
2018-03-26T03:28:08.786Z,16.87
2018-03-26T03:33:11.819Z,16.90
2018-03-26T03:38:14.409Z,16.40
2018-03-26T03:43:17.018Z,16.97
2018-03-26T03:48:19.610Z,17.33
2018-03-26T03:53:22.223Z,15.87
2018-03-26T03:58:25.720Z,17.23
2018-03-26T04:03:28.329Z,17.03
2018-03-26T04:08:30.957Z,16.43
2018-03-26T04:13:34.316Z,17.23
2018-03-26T04:18:36.901Z,18.10
2018-03-26T04:23:39.477Z,15.90
2018-03-26T04:28:42.840Z,16.80
2018-03-26T04:33:45.445Z,17.87
2018-03-26T04:38:48.036Z,16.70
2018-03-26T04:43:50.629Z,16.43
2018-03-26T04:48:53.223Z,17.40
2018-03-26T04:53:55.813Z,18.80
2018-03-26T04:58:58.421Z,17.23
2018-03-26T05:04:01.242Z,17.57
2018-03-26T05:09:03.824Z,17.83
2018-03-26T05:14:06.430Z,18.63
2018-03-26T05:19:09.029Z,18.37
2018-03-26T05:24:11.640Z,18.57
2018-03-26T05:29:14.224Z,19.20
2018-03-26T05:34:16.828Z,18.50
2018-03-26T05:39:19.417Z,18.00
2018-03-26T05:44:22.001Z,18.60
2018-03-26T05:49:25.351Z,17.90
2018-03-26T05:54:27.932Z,19.50
2018-03-26T05:59:30.593Z,19.77
2018-03-26T06:04:33.185Z,20.77
2018-03-26T06:09:35.771Z,18.80
2018-03-26T06:14:38.382Z,20.33
2018-03-26T06:19:40.955Z,22.00
2018-03-26T06:24:43.723Z,20.57
2018-03-26T06:29:46.301Z,21.03
2018-03-26T06:34:49.644Z,20.80
2018-03-26T06:39:52.219Z,22.00
2018-03-26T06:44:55.560Z,21.03
2018-03-26T06:49:58.137Z,20.43
2018-03-26T06:55:01.473Z,21.27
2018-03-26T07:00:04.090Z,21.77
2018-03-26T07:05:06.683Z,22.80
2018-03-26T07:10:09.279Z,22.20
2018-03-26T07:15:11.877Z,23.10
2018-03-26T07:20:14.499Z,23.93
2018-03-26T07:25:17.118Z,23.17
2018-03-26T07:30:20.479Z,22.73
2018-03-26T07:35:23.086Z,22.20
2018-03-26T07:40:25.705Z,22.70
2018-03-26T07:45:28.330Z,22.13
2018-03-26T07:50:31.719Z,23.70
2018-03-26T07:55:34.304Z,21.70
2018-03-26T08:00:36.940Z,22.60
2018-03-26T08:05:39.527Z,22.00
2018-03-26T08:10:42.952Z,22.50
2018-03-26T08:15:45.551Z,21.77
2018-03-26T08:20:48.139Z,22.57
2018-03-26T08:25:50.739Z,22.80
2018-03-26T08:30:53.316Z,23.47
2018-03-26T08:35:55.982Z,24.03
2018-03-26T08:40:58.582Z,24.43
2018-03-26T08:46:01.241Z,23.60
2018-03-26T08:51:04.506Z,24.67
2018-03-26T08:56:07.093Z,24.07
2018-03-26T09:01:10.462Z,23.20
2018-03-26T09:06:13.646Z,25.20
2018-03-26T09:11:17.017Z,24.57
2018-03-26T09:16:19.642Z,24.40
2018-03-26T09:21:22.483Z,24.30
2018-03-26T09:26:25.598Z,24.30
2018-03-26T09:31:28.505Z,24.33
2018-03-26T09:36:31.106Z,23.97
2018-03-26T09:41:34.022Z,25.23
2018-03-26T09:46:37.356Z,25.73
2018-03-26T09:51:39.967Z,26.70
2018-03-26T09:56:42.822Z,24.20
2018-03-26T10:01:52.048Z,25.70
2018-03-26T10:06:55.097Z,26.50
2018-03-26T10:11:57.681Z,25.67
2018-03-26T10:17:01.678Z,25.97
2018-03-26T10:22:04.298Z,24.73
2018-03-26T10:27:06.999Z,24.67
2018-03-26T10:32:10.225Z,25.70
2018-03-26T10:37:13.650Z,25.17
2018-03-26T10:42:17.011Z,26.43
2018-03-26T10:47:20.051Z,23.77
2018-03-26T10:52:22.654Z,24.53
2018-03-26T10:57:25.318Z,26.13
2018-03-26T11:02:28.583Z,25.67
2018-03-26T11:07:32.617Z,26.77
2018-03-26T11:12:35.445Z,24.83
2018-03-26T11:17:38.635Z,24.17
2018-03-26T11:22:42.004Z,25.20
2018-03-26T11:27:45.255Z,22.53
2018-03-26T11:32:47.926Z,23.33
2018-03-26T11:37:50.489Z,24.33
2018-03-26T11:42:53.073Z,25.00
2018-03-26T11:47:56.891Z,24.67
2018-03-26T11:52:59.767Z,21.70
2018-03-26T11:58:02.951Z,23.03
2018-03-26T12:03:05.870Z,23.50
2018-03-26T12:08:08.493Z,23.90
2018-03-26T12:13:11.086Z,24.60
2018-03-26T12:18:13.983Z,24.10
2018-03-26T12:23:28.423Z,24.90
2018-03-26T12:28:43.745Z,23.83
2018-03-26T12:33:58.290Z,23.33
2018-03-26T12:39:00.904Z,22.67
2018-03-26T12:44:04.255Z,23.40
2018-03-26T12:49:06.992Z,23.67
2018-03-26T12:54:12.273Z,23.63
2018-03-26T12:59:14.858Z,21.73
2018-03-26T13:09:51.993Z,22.70
2018-03-26T13:14:55.353Z,22.20
2018-03-26T13:19:57.945Z,20.67
2018-03-26T13:25:00.571Z,21.53
2018-03-26T13:30:03.935Z,22.40
2018-03-26T13:35:07.343Z,22.67
2018-03-26T13:40:09.946Z,26.67
2018-03-26T13:45:13.339Z,23.40
2018-03-26T13:50:15.950Z,23.00
2018-03-26T13:55:18.563Z,22.83
2018-03-26T14:00:21.739Z,22.13
2018-03-26T14:05:25.227Z,21.50
2018-03-26T14:10:40.700Z,22.77
2018-03-26T14:15:55.648Z,23.03
2018-03-26T14:20:58.789Z,22.70
2018-03-26T14:26:01.381Z,23.40
2018-03-26T14:31:04.607Z,27.20
2018-03-26T14:36:07.202Z,23.13
2018-03-26T14:41:09.834Z,23.40
2018-03-26T14:46:13.670Z,23.63
2018-03-26T14:51:17.059Z,24.43
2018-03-26T14:56:20.492Z,23.00
2018-03-26T15:01:23.117Z,23.20
2018-03-26T15:06:25.701Z,21.63
2018-03-26T15:11:29.063Z,20.70
2018-03-26T15:16:31.932Z,21.20
2018-03-26T15:21:35.276Z,19.57
2018-03-26T15:26:37.866Z,20.03
2018-03-26T15:31:40.477Z,19.50
2018-03-26T15:36:43.071Z,21.27
2018-03-26T15:41:46.977Z,20.00
2018-03-26T15:46:50.072Z,21.53
2018-03-26T15:51:52.672Z,21.97
2018-03-26T15:56:56.260Z,22.80
2018-03-26T16:01:58.688Z,22.07
2018-03-26T16:07:01.689Z,22.47
2018-03-26T16:12:04.876Z,21.87
2018-03-26T16:17:07.828Z,19.80
2018-03-26T16:22:11.346Z,20.80
2018-03-26T16:27:15.203Z,19.70
2018-03-26T16:32:17.886Z,18.70
2018-03-26T16:37:21.481Z,19.23
2018-03-26T16:42:24.861Z,19.93
2018-03-26T16:47:27.496Z,19.57
2018-03-26T16:52:30.564Z,19.53
2018-03-26T16:57:33.166Z,19.83
2018-03-26T17:02:36.081Z,18.87
2018-03-26T17:07:38.873Z,20.60
2018-03-26T17:12:42.337Z,19.90
2018-03-26T17:17:44.974Z,22.43
2018-03-26T17:22:47.669Z,21.77
2018-03-26T17:27:50.290Z,22.60
2018-03-26T17:32:53.669Z,22.00
2018-03-26T17:37:56.266Z,19.17
2018-03-26T17:42:59.255Z,20.67
2018-03-26T17:48:02.899Z,19.97
2018-03-26T17:53:06.120Z,19.77
2018-03-26T17:58:08.758Z,18.83
2018-03-26T18:03:12.175Z,18.57
2018-03-26T18:08:15.938Z,19.57
2018-03-26T18:13:18.538Z,18.40
2018-03-26T18:18:21.137Z,20.37
2018-03-26T18:23:23.744Z,18.53
2018-03-26T18:28:26.341Z,17.73
2018-03-26T18:33:28.981Z,18.40
2018-03-26T18:38:32.119Z,20.37
2018-03-26T18:43:35.939Z,21.03
2018-03-26T18:48:39.360Z,20.60
2018-03-26T18:53:45.363Z,20.23
2018-03-26T18:58:48.004Z,19.30
2018-03-26T19:03:50.822Z,22.90
2018-03-26T19:08:54.578Z,25.40
2018-03-26T19:13:57.946Z,20.47
2018-03-26T19:19:00.531Z,20.13
2018-03-26T19:24:03.914Z,19.30
2018-03-26T19:29:06.530Z,18.10
2018-03-26T19:34:09.579Z,18.37
2018-03-26T19:39:12.284Z,18.47
2018-03-26T19:44:14.892Z,18.17
2018-03-26T19:49:17.514Z,17.50
2018-03-26T19:54:20.110Z,20.03
2018-03-26T19:59:22.722Z,17.90
2018-03-26T20:04:25.731Z,17.53
2018-03-26T20:09:28.924Z,18.17
2018-03-26T20:14:31.793Z,19.00
2018-03-26T20:19:35.191Z,17.87
2018-03-26T20:24:37.784Z,17.73
2018-03-26T20:29:40.483Z,18.33
2018-03-26T20:34:43.534Z,19.97
2018-03-26T20:39:46.967Z,20.73
2018-03-26T20:44:49.610Z,20.97
2018-03-26T20:49:52.214Z,20.40
2018-03-26T20:54:54.798Z,21.93
2018-03-26T20:59:57.404Z,21.30
2018-03-26T21:05:00.746Z,21.10
2018-03-26T21:10:04.038Z,21.83
2018-03-26T21:15:13.217Z,22.80
2018-03-26T21:20:16.556Z,23.60
2018-03-26T21:25:19.145Z,22.53
2018-03-26T21:30:21.749Z,23.43
2018-03-26T21:35:24.345Z,23.33
2018-03-26T21:40:26.935Z,22.27
2018-03-26T21:45:30.011Z,22.60
2018-03-26T21:50:34.091Z,24.20
2018-03-26T21:55:36.719Z,23.20
2018-03-26T22:00:39.651Z,23.00
2018-03-26T22:05:43.338Z,23.43
2018-03-26T22:10:45.944Z,23.60
2018-03-26T22:15:48.561Z,22.63
2018-03-26T22:20:51.242Z,23.70
2018-03-26T22:25:53.843Z,22.90
2018-03-26T22:30:56.440Z,21.37
2018-03-26T22:35:59.029Z,22.50
2018-03-26T22:41:02.268Z,23.27
2018-03-26T22:46:05.621Z,23.30
2018-03-26T22:51:08.490Z,24.17
2018-03-26T22:56:11.849Z,22.93
2018-03-26T23:01:14.453Z,22.40
2018-03-26T23:06:17.814Z,22.63
2018-03-26T23:11:20.686Z,24.30
2018-03-26T23:16:24.377Z,23.13
2018-03-26T23:21:26.981Z,22.97
2018-03-26T23:26:29.804Z,23.80
2018-03-26T23:31:33.176Z,23.43
2018-03-26T23:36:36.489Z,24.03
2018-03-26T23:41:39.073Z,24.47
2018-03-26T23:46:41.705Z,24.37
2018-03-26T23:51:44.313Z,25.33
2018-03-26T23:56:48.875Z,24.17
